createdAt,value
2023-03-24T00:00:01.264Z,0
2023-03-24T00:01:17.569Z,0
2023-03-24T00:02:32.793Z,0
2023-03-24T00:03:47.850Z,0
2023-03-24T00:06:19.392Z,0
2023-03-24T00:07:34.601Z,0
2023-03-24T00:08:49.820Z,0
2023-03-24T00:10:06.006Z,0
2023-03-24T00:11:22.195Z,0
2023-03-24T00:12:38.367Z,0
2023-03-24T00:13:54.424Z,0
2023-03-24T00:15:10.746Z,0
2023-03-24T00:16:26.807Z,0
2023-03-24T00:17:42.989Z,0
2023-03-24T00:18:59.175Z,0
2023-03-24T00:20:15.506Z,0
2023-03-24T00:21:31.680Z,0
2023-03-24T00:22:47.736Z,0
2023-03-24T00:24:04.063Z,0
2023-03-24T00:25:19.270Z,0
2023-03-24T00:26:35.449Z,0
2023-03-24T00:27:51.633Z,0
2023-03-24T00:29:07.676Z,0
2023-03-24T00:30:23.873Z,0
2023-03-24T00:31:40.067Z,0
2023-03-24T00:32:56.380Z,0
2023-03-24T00:34:11.612Z,0
2023-03-24T00:35:26.675Z,0
2023-03-24T00:36:42.987Z,0
2023-03-24T00:37:59.038Z,0
2023-03-24T00:39:15.365Z,0
2023-03-24T00:40:31.563Z,0
2023-03-24T00:41:47.605Z,0
2023-03-24T00:43:03.797Z,0
2023-03-24T00:44:20.114Z,0
2023-03-24T00:45:36.163Z,0
2023-03-24T00:46:52.494Z,0
2023-03-24T00:48:08.543Z,0
2023-03-24T00:49:24.866Z,0
2023-03-24T00:50:41.052Z,0
2023-03-24T00:51:56.253Z,0
2023-03-24T00:53:12.447Z,0
2023-03-24T00:54:28.636Z,0
2023-03-24T00:55:44.814Z,0
2023-03-24T00:57:01.013Z,0
2023-03-24T00:58:17.189Z,0
2023-03-24T00:59:33.392Z,0
2023-03-24T01:00:49.579Z,0
2023-03-24T01:02:05.752Z,0
2023-03-24T01:03:21.802Z,0
2023-03-24T01:04:38.130Z,0
2023-03-24T01:05:54.166Z,0
2023-03-24T01:07:10.353Z,0
2023-03-24T01:08:25.571Z,0
2023-03-24T01:09:41.894Z,0
2023-03-24T01:10:57.945Z,0
2023-03-24T01:12:14.273Z,0
2023-03-24T01:13:30.304Z,0
2023-03-24T01:14:46.494Z,0
2023-03-24T01:16:02.676Z,0
2023-03-24T01:17:19.020Z,0
2023-03-24T01:18:35.061Z,0
2023-03-24T01:19:51.254Z,0
2023-03-24T01:21:07.435Z,0
2023-03-24T01:22:23.780Z,0
2023-03-24T01:23:39.803Z,0
2023-03-24T01:24:55.172Z,0
2023-03-24T01:26:11.344Z,0
2023-03-24T01:27:27.544Z,0
2023-03-24T01:28:43.729Z,0
2023-03-24T01:29:59.758Z,0
2023-03-24T01:31:15.945Z,0
2023-03-24T01:32:32.142Z,0
2023-03-24T01:33:48.469Z,0
2023-03-24T01:35:04.664Z,0
2023-03-24T01:36:20.843Z,0
2023-03-24T01:37:37.027Z,0
2023-03-24T01:38:53.057Z,0
2023-03-24T01:40:09.404Z,0
2023-03-24T01:41:24.612Z,0
2023-03-24T01:42:40.795Z,0
2023-03-24T01:43:56.991Z,0
2023-03-24T01:45:13.020Z,0
2023-03-24T01:46:29.208Z,0
2023-03-24T01:47:45.386Z,0
2023-03-24T01:49:01.737Z,0
2023-03-24T01:50:16.939Z,0
2023-03-24T01:51:33.133Z,0
2023-03-24T01:52:49.320Z,0
2023-03-24T01:54:05.518Z,0
2023-03-24T01:55:21.698Z,0
2023-03-24T01:56:37.715Z,0
2023-03-24T01:57:53.913Z,0
2023-03-24T01:59:10.265Z,0
2023-03-24T02:00:26.436Z,0
2023-03-24T02:01:42.633Z,0
2023-03-24T02:02:58.812Z,0
2023-03-24T02:04:15.018Z,0
2023-03-24T02:05:31.203Z,0
2023-03-24T02:06:46.228Z,0
2023-03-24T02:08:02.596Z,0
2023-03-24T02:09:18.769Z,0
2023-03-24T02:10:34.800Z,0
2023-03-24T02:11:50.978Z,0
2023-03-24T02:13:07.338Z,0
2023-03-24T02:14:23.368Z,0
2023-03-24T02:15:39.709Z,0
2023-03-24T02:16:55.736Z,0
2023-03-24T02:18:12.080Z,0
2023-03-24T02:19:28.265Z,0
2023-03-24T02:20:44.465Z,0
2023-03-24T02:22:00.481Z,0
2023-03-24T02:23:15.686Z,0
2023-03-24T02:24:32.039Z,0
2023-03-24T02:25:48.235Z,0
2023-03-24T02:27:04.415Z,0
2023-03-24T02:28:20.592Z,0
2023-03-24T02:29:36.785Z,0
2023-03-24T02:30:52.979Z,0
2023-03-24T02:32:09.161Z,0
2023-03-24T02:33:25.358Z,0
2023-03-24T02:34:41.541Z,0
2023-03-24T02:35:57.725Z,0
2023-03-24T02:37:13.922Z,0
2023-03-24T02:38:30.101Z,0
2023-03-24T02:39:45.124Z,0
2023-03-24T02:41:01.326Z,0
2023-03-24T02:42:17.684Z,0
2023-03-24T02:43:33.693Z,0
2023-03-24T02:44:49.887Z,0
2023-03-24T02:46:06.236Z,0
2023-03-24T02:47:22.437Z,0
2023-03-24T02:48:38.438Z,0
2023-03-24T02:49:54.810Z,0
2023-03-24T02:51:10.987Z,0
2023-03-24T02:52:27.170Z,0
2023-03-24T02:53:43.357Z,0
2023-03-24T02:54:59.548Z,0
2023-03-24T02:56:14.763Z,0
2023-03-24T02:57:30.936Z,0
2023-03-24T02:58:47.129Z,0
2023-03-24T03:00:03.143Z,0
2023-03-24T03:01:19.330Z,0
2023-03-24T03:02:35.690Z,0
2023-03-24T03:03:51.879Z,0
2023-03-24T03:05:07.900Z,0
2023-03-24T03:06:24.264Z,0
2023-03-24T03:07:40.444Z,0
2023-03-24T03:08:56.636Z,0
2023-03-24T03:10:12.636Z,0
2023-03-24T03:11:29.013Z,0
2023-03-24T03:12:44.213Z,0
2023-03-24T03:14:00.229Z,0
2023-03-24T03:15:16.401Z,0
2023-03-24T03:16:32.765Z,0
2023-03-24T03:17:48.784Z,0
2023-03-24T03:19:05.139Z,0
2023-03-24T03:20:21.158Z,0
2023-03-24T03:21:37.514Z,0
2023-03-24T03:22:53.714Z,0
2023-03-24T03:24:09.894Z,0
2023-03-24T03:25:26.076Z,0
2023-03-24T03:26:42.087Z,0
2023-03-24T03:27:58.463Z,0
2023-03-24T03:29:13.657Z,0
2023-03-24T03:30:29.668Z,0
2023-03-24T03:31:46.027Z,0
2023-03-24T03:33:02.037Z,0
2023-03-24T03:34:18.406Z,0
2023-03-24T03:35:34.586Z,0
2023-03-24T03:36:50.793Z,0
2023-03-24T03:38:06.967Z,0
2023-03-24T03:39:23.161Z,0
2023-03-24T03:40:39.171Z,0
2023-03-24T03:41:55.525Z,0
2023-03-24T03:43:11.538Z,0
2023-03-24T03:44:27.902Z,0
2023-03-24T03:45:44.220Z,0
2023-03-24T03:47:00.214Z,0
2023-03-24T03:48:16.413Z,0
2023-03-24T03:49:32.782Z,0
2023-03-24T03:50:48.788Z,0
2023-03-24T03:52:04.964Z,0
2023-03-24T03:53:21.346Z,0
2023-03-24T03:54:37.526Z,0
2023-03-24T03:55:53.528Z,0
2023-03-24T03:57:09.905Z,0
2023-03-24T03:58:25.911Z,0
2023-03-24T03:59:42.272Z,0
2023-03-24T04:00:58.466Z,0
2023-03-24T04:02:13.668Z,0
2023-03-24T04:03:29.849Z,0
2023-03-24T04:04:45.852Z,0
2023-03-24T04:06:02.047Z,0
2023-03-24T04:07:18.421Z,0
2023-03-24T04:08:34.609Z,0
2023-03-24T04:09:50.789Z,0
2023-03-24T04:11:06.986Z,0
2023-03-24T04:12:23.179Z,0
2023-03-24T04:13:39.347Z,0
2023-03-24T04:14:55.534Z,0
2023-03-24T04:16:11.733Z,0
2023-03-24T04:17:27.733Z,0
2023-03-24T04:18:42.934Z,0
2023-03-24T04:19:59.303Z,0
2023-03-24T04:21:15.490Z,0
2023-03-24T04:22:31.688Z,0
2023-03-24T04:23:47.876Z,0
2023-03-24T04:25:04.054Z,0
2023-03-24T04:26:20.048Z,0
2023-03-24T04:27:36.427Z,0
2023-03-24T04:28:52.615Z,0
2023-03-24T04:30:08.609Z,0
2023-03-24T04:31:24.996Z,0
2023-03-24T04:32:41.186Z,0
2023-03-24T04:33:57.183Z,0
2023-03-24T04:35:12.583Z,0
2023-03-24T04:36:28.765Z,0
2023-03-24T04:37:44.947Z,0
2023-03-24T04:39:01.127Z,0
2023-03-24T04:40:17.322Z,0
2023-03-24T04:41:33.502Z,0
2023-03-24T04:42:49.513Z,0
2023-03-24T04:44:05.889Z,0
2023-03-24T04:45:22.073Z,0
2023-03-24T04:46:38.263Z,0
2023-03-24T04:47:54.256Z,0
2023-03-24T04:49:10.429Z,0
2023-03-24T04:50:26.817Z,0
2023-03-24T04:51:42.032Z,0
2023-03-24T04:52:58.018Z,0
2023-03-24T04:54:14.401Z,0
2023-03-24T04:55:30.384Z,0
2023-03-24T04:56:46.577Z,0
2023-03-24T04:58:02.958Z,0
2023-03-24T04:59:19.148Z,0
2023-03-24T05:00:35.333Z,0
2023-03-24T05:01:51.321Z,0
2023-03-24T05:03:07.518Z,0
2023-03-24T05:04:23.690Z,0
2023-03-24T05:05:40.085Z,0
2023-03-24T05:06:56.274Z,0
2023-03-24T05:08:11.269Z,0
2023-03-24T05:09:27.469Z,0
2023-03-24T05:10:43.852Z,0
2023-03-24T05:11:59.841Z,0
2023-03-24T05:13:16.234Z,0
2023-03-24T05:14:32.419Z,0
2023-03-24T05:15:48.597Z,0
2023-03-24T05:17:04.581Z,0
2023-03-24T05:18:20.969Z,0
2023-03-24T05:19:36.962Z,0
2023-03-24T05:20:53.152Z,5
2023-03-24T05:22:09.540Z,5
2023-03-24T05:23:25.722Z,5
2023-03-24T05:24:40.716Z,5
2023-03-24T05:25:57.112Z,5
2023-03-24T05:27:13.000Z,5
2023-03-24T05:28:29.483Z,11
2023-03-24T05:29:45.483Z,11
2023-03-24T05:31:01.858Z,11
2023-03-24T05:32:17.846Z,11
2023-03-24T05:33:34.032Z,11
2023-03-24T05:34:50.224Z,11
2023-03-24T05:36:06.606Z,11
2023-03-24T05:37:22.589Z,11
2023-03-24T05:38:38.785Z,5
2023-03-24T05:39:55.168Z,5
2023-03-24T05:41:10.376Z,5
2023-03-24T05:42:26.572Z,5
2023-03-24T05:43:42.746Z,5
2023-03-24T05:44:58.939Z,5
2023-03-24T05:46:14.924Z,11
2023-03-24T05:47:31.104Z,11
2023-03-24T05:48:47.293Z,11
2023-03-24T05:50:03.479Z,5
2023-03-24T05:51:19.883Z,5
2023-03-24T05:52:36.063Z,5
2023-03-24T05:53:52.252Z,5
2023-03-24T05:55:08.234Z,5
2023-03-24T05:56:24.618Z,5
2023-03-24T05:57:39.625Z,5
2023-03-24T05:58:55.810Z,5
2023-03-24T06:00:12.215Z,5
2023-03-24T06:01:28.189Z,5
2023-03-24T06:02:44.583Z,0
2023-03-24T06:04:00.766Z,0
2023-03-24T06:05:15.989Z,0
2023-03-24T06:06:32.180Z,0
2023-03-24T06:07:48.351Z,5
2023-03-24T06:09:04.542Z,5
2023-03-24T06:10:20.534Z,5
2023-03-24T06:11:36.720Z,11
2023-03-24T06:12:52.903Z,11
2023-03-24T06:14:09.309Z,11
2023-03-24T06:15:25.288Z,5
2023-03-24T06:16:41.680Z,5
2023-03-24T06:17:57.657Z,5
2023-03-24T06:19:14.068Z,11
2023-03-24T06:20:30.026Z,11
2023-03-24T06:21:45.241Z,5
2023-03-24T06:23:01.639Z,5
2023-03-24T06:24:17.615Z,5
2023-03-24T06:25:34.027Z,5
2023-03-24T06:26:50.200Z,5
2023-03-24T06:28:06.177Z,16
2023-03-24T06:29:22.586Z,28
2023-03-24T06:30:38.773Z,33
2023-03-24T06:31:54.974Z,33
2023-03-24T06:33:11.154Z,33
2023-03-24T06:34:27.348Z,33
2023-03-24T06:35:43.535Z,22
2023-03-24T06:36:59.492Z,28
2023-03-24T06:38:14.917Z,28
2023-03-24T06:39:31.118Z,28
2023-03-24T06:40:47.080Z,28
2023-03-24T06:42:03.484Z,28
2023-03-24T06:43:19.459Z,33
2023-03-24T06:44:35.868Z,39
2023-03-24T06:45:52.068Z,39
2023-03-24T06:47:08.253Z,33
2023-03-24T06:48:24.217Z,39
2023-03-24T06:49:40.411Z,45
2023-03-24T06:50:56.583Z,56
2023-03-24T06:52:12.994Z,45
2023-03-24T06:53:28.974Z,56
2023-03-24T06:54:44.388Z,56
2023-03-24T06:56:00.594Z,50
2023-03-24T06:57:16.542Z,39
2023-03-24T06:58:32.731Z,33
2023-03-24T06:59:49.158Z,33
2023-03-24T07:01:05.349Z,45
2023-03-24T07:02:21.527Z,50
2023-03-24T07:03:37.721Z,50
2023-03-24T07:04:53.684Z,50
2023-03-24T07:06:09.875Z,45
2023-03-24T07:07:26.279Z,45
2023-03-24T07:08:42.470Z,45
2023-03-24T07:09:58.673Z,45
2023-03-24T07:11:13.653Z,50
2023-03-24T07:12:29.842Z,56
2023-03-24T07:13:46.029Z,61
2023-03-24T07:15:02.205Z,67
2023-03-24T07:16:18.624Z,67
2023-03-24T07:17:34.592Z,61
2023-03-24T07:18:50.999Z,56
2023-03-24T07:20:07.187Z,56
2023-03-24T07:21:23.162Z,56
2023-03-24T07:22:39.574Z,61
2023-03-24T07:23:55.751Z,67
2023-03-24T07:25:11.945Z,78
2023-03-24T07:26:27.915Z,84
2023-03-24T07:27:43.107Z,73
2023-03-24T07:28:59.311Z,73
2023-03-24T07:30:15.719Z,78
2023-03-24T07:31:31.909Z,73
2023-03-24T07:32:48.105Z,73
2023-03-24T07:34:04.049Z,84
2023-03-24T07:35:20.248Z,84
2023-03-24T07:36:36.434Z,101
2023-03-24T07:37:52.614Z,118
2023-03-24T07:39:09.035Z,135
2023-03-24T07:40:24.993Z,129
2023-03-24T07:41:41.178Z,118
2023-03-24T07:42:57.617Z,90
2023-03-24T07:44:12.577Z,67
2023-03-24T07:45:29.004Z,61
2023-03-24T07:46:45.199Z,67
2023-03-24T07:48:01.374Z,78
2023-03-24T07:49:17.331Z,78
2023-03-24T07:50:33.766Z,78
2023-03-24T07:51:49.718Z,73
2023-03-24T07:53:05.907Z,78
2023-03-24T07:54:22.095Z,78
2023-03-24T07:55:38.514Z,67
2023-03-24T07:56:54.705Z,61
2023-03-24T07:58:10.896Z,56
2023-03-24T07:59:26.852Z,67
2023-03-24T08:00:42.282Z,78
2023-03-24T08:01:58.472Z,78
2023-03-24T08:03:14.657Z,61
2023-03-24T08:04:30.607Z,56
2023-03-24T08:05:46.810Z,61
2023-03-24T08:07:02.996Z,56
2023-03-24T08:08:19.410Z,61
2023-03-24T08:09:35.615Z,56
2023-03-24T08:10:51.787Z,45
2023-03-24T08:12:07.978Z,45
2023-03-24T08:13:24.172Z,45
2023-03-24T08:14:40.126Z,39
2023-03-24T08:15:56.554Z,33
2023-03-24T08:17:11.765Z,33
2023-03-24T08:18:27.717Z,33
2023-03-24T08:19:44.144Z,33
2023-03-24T08:21:00.329Z,33
2023-03-24T08:22:16.285Z,33
2023-03-24T08:23:32.700Z,28
2023-03-24T08:24:48.898Z,33
2023-03-24T08:26:04.844Z,33
2023-03-24T08:27:21.280Z,39
2023-03-24T08:28:37.457Z,33
2023-03-24T08:29:53.409Z,33
2023-03-24T08:31:09.589Z,28
2023-03-24T08:32:26.036Z,33
2023-03-24T08:33:41.230Z,28
2023-03-24T08:34:57.430Z,28
2023-03-24T08:36:13.357Z,33
2023-03-24T08:37:29.547Z,33
2023-03-24T08:38:45.751Z,33
2023-03-24T08:40:02.169Z,33
2023-03-24T08:41:18.128Z,39
2023-03-24T08:42:34.550Z,39
2023-03-24T08:43:50.495Z,39
2023-03-24T08:45:06.692Z,39
2023-03-24T08:46:23.122Z,45
2023-03-24T08:47:39.072Z,39
2023-03-24T08:48:55.262Z,39
2023-03-24T08:50:10.472Z,33
2023-03-24T08:51:26.907Z,22
2023-03-24T08:52:42.848Z,16
2023-03-24T08:53:59.037Z,22
2023-03-24T08:55:15.466Z,28
2023-03-24T08:56:31.403Z,33
2023-03-24T08:57:47.851Z,33
2023-03-24T08:59:03.784Z,39
2023-03-24T09:00:19.979Z,39
2023-03-24T09:01:36.410Z,45
2023-03-24T09:02:52.600Z,50
2023-03-24T09:04:08.543Z,50
2023-03-24T09:05:24.985Z,50
2023-03-24T09:06:40.190Z,50
2023-03-24T09:07:56.116Z,50
2023-03-24T09:09:12.313Z,56
2023-03-24T09:10:28.751Z,61
2023-03-24T09:11:44.933Z,56
2023-03-24T09:13:01.136Z,61
2023-03-24T09:14:17.326Z,73
2023-03-24T09:15:33.264Z,73
2023-03-24T09:16:49.452Z,67
2023-03-24T09:18:05.878Z,56
2023-03-24T09:19:22.078Z,56
2023-03-24T09:20:38.009Z,50
2023-03-24T09:21:54.198Z,39
2023-03-24T09:23:09.396Z,33
2023-03-24T09:24:25.856Z,28
2023-03-24T09:25:42.048Z,28
2023-03-24T09:26:58.228Z,33
2023-03-24T09:28:14.421Z,39
2023-03-24T09:29:30.354Z,33
2023-03-24T09:30:46.787Z,33
2023-03-24T09:32:02.718Z,28
2023-03-24T09:33:19.167Z,28
2023-03-24T09:34:35.108Z,28
2023-03-24T09:35:51.560Z,33
2023-03-24T09:37:07.738Z,39
2023-03-24T09:38:23.677Z,56
2023-03-24T09:39:38.879Z,73
2023-03-24T09:40:55.324Z,95
2023-03-24T09:42:11.510Z,135
2023-03-24T09:43:27.698Z,118
2023-03-24T09:44:43.631Z,118
2023-03-24T09:45:59.813Z,146
2023-03-24T09:47:16.013Z,168
2023-03-24T09:48:32.458Z,191
2023-03-24T09:49:48.651Z,202
2023-03-24T09:51:04.569Z,230
2023-03-24T09:52:21.026Z,225
2023-03-24T09:53:37.218Z,196
2023-03-24T09:54:53.136Z,191
2023-03-24T09:56:08.606Z,185
2023-03-24T09:57:24.546Z,191
2023-03-24T09:58:40.983Z,180
2023-03-24T09:59:56.916Z,163
2023-03-24T10:01:13.096Z,151
2023-03-24T10:02:29.293Z,101
2023-03-24T10:03:45.481Z,95
2023-03-24T10:05:01.933Z,90
2023-03-24T10:06:17.851Z,95
2023-03-24T10:07:34.316Z,106
2023-03-24T10:08:50.228Z,157
2023-03-24T10:10:06.683Z,157
2023-03-24T10:11:22.618Z,135
2023-03-24T10:12:37.824Z,123
2023-03-24T10:13:54.270Z,90
2023-03-24T10:15:10.464Z,56
2023-03-24T10:16:26.386Z,50
2023-03-24T10:17:42.840Z,39
2023-03-24T10:18:59.021Z,28
2023-03-24T10:20:14.240Z,22
2023-03-24T10:21:30.427Z,22
2023-03-24T10:22:46.624Z,22
2023-03-24T10:24:02.811Z,22
2023-03-24T10:25:18.726Z,22
2023-03-24T10:26:35.177Z,33
2023-03-24T10:27:51.378Z,28
2023-03-24T10:29:07.563Z,28
2023-03-24T10:30:23.760Z,28
2023-03-24T10:31:39.946Z,45
2023-03-24T10:32:56.131Z,33
2023-03-24T10:34:12.044Z,45
2023-03-24T10:35:28.503Z,39
2023-03-24T10:36:43.715Z,50
2023-03-24T10:37:59.635Z,146
2023-03-24T10:39:16.091Z,247
2023-03-24T10:40:32.285Z,230
2023-03-24T10:41:48.192Z,185
2023-03-24T10:43:04.667Z,185
2023-03-24T10:44:20.838Z,230
2023-03-24T10:45:37.042Z,236
2023-03-24T10:46:52.957Z,236
2023-03-24T10:48:09.419Z,191
2023-03-24T10:49:25.609Z,163
2023-03-24T10:50:41.509Z,157
2023-03-24T10:51:57.980Z,168
2023-03-24T10:53:13.000Z,185
2023-03-24T10:54:29.101Z,185
2023-03-24T10:55:45.559Z,174
2023-03-24T10:57:01.485Z,174
2023-03-24T10:58:17.674Z,118
2023-03-24T10:59:34.123Z,73
2023-03-24T11:00:50.315Z,73
2023-03-24T11:02:06.512Z,78
2023-03-24T11:03:22.425Z,45
2023-03-24T11:04:38.880Z,50
2023-03-24T11:05:55.070Z,45
2023-03-24T11:07:10.994Z,61
2023-03-24T11:08:27.183Z,73
2023-03-24T11:09:43.358Z,67
2023-03-24T11:10:58.565Z,61
2023-03-24T11:12:14.980Z,84
2023-03-24T11:13:31.170Z,95
2023-03-24T11:14:47.356Z,101
2023-03-24T11:16:03.550Z,95
2023-03-24T11:17:19.516Z,101
2023-03-24T11:18:35.929Z,118
2023-03-24T11:19:51.896Z,146
2023-03-24T11:21:08.298Z,163
2023-03-24T11:22:24.272Z,185
2023-03-24T11:23:40.446Z,230
2023-03-24T11:24:56.864Z,315
2023-03-24T11:26:13.044Z,320
2023-03-24T11:27:28.257Z,354
2023-03-24T11:28:44.218Z,348
2023-03-24T11:30:00.632Z,365
2023-03-24T11:31:16.826Z,354
2023-03-24T11:32:32.798Z,337
2023-03-24T11:33:49.200Z,320
2023-03-24T11:35:05.000Z,281
2023-03-24T11:36:21.592Z,275
2023-03-24T11:37:37.549Z,275
2023-03-24T11:38:53.960Z,286
2023-03-24T11:40:09.918Z,315
2023-03-24T11:41:26.000Z,292
2023-03-24T11:42:42.530Z,247
2023-03-24T11:43:57.725Z,281
2023-03-24T11:45:13.923Z,309
2023-03-24T11:46:30.109Z,348
2023-03-24T11:47:46.085Z,309
2023-03-24T11:49:02.273Z,298
2023-03-24T11:50:18.685Z,360
2023-03-24T11:51:34.644Z,348
2023-03-24T11:52:50.838Z,258
2023-03-24T11:54:07.014Z,208
2023-03-24T11:55:23.211Z,281
2023-03-24T11:56:39.401Z,337
2023-03-24T11:57:55.802Z,376
2023-03-24T11:59:11.998Z,382
2023-03-24T12:00:27.199Z,264
2023-03-24T12:01:43.164Z,180
2023-03-24T12:02:59.346Z,140
2023-03-24T12:04:15.542Z,118
2023-03-24T12:05:31.739Z,123
2023-03-24T12:06:47.915Z,129
2023-03-24T12:08:04.120Z,123
2023-03-24T12:09:20.520Z,112
2023-03-24T12:10:36.715Z,106
2023-03-24T12:11:52.905Z,118
2023-03-24T12:13:09.103Z,135
2023-03-24T12:14:25.049Z,129
2023-03-24T12:15:41.482Z,129
2023-03-24T12:16:56.671Z,140
2023-03-24T12:18:12.641Z,123
2023-03-24T12:19:28.831Z,112
2023-03-24T12:20:45.253Z,118
2023-03-24T12:22:01.202Z,123
2023-03-24T12:23:17.626Z,112
2023-03-24T12:24:33.808Z,112
2023-03-24T12:25:49.763Z,157
2023-03-24T12:27:05.958Z,180
2023-03-24T12:28:22.377Z,146
2023-03-24T12:29:38.575Z,185
2023-03-24T12:30:54.522Z,225
2023-03-24T12:32:10.706Z,163
2023-03-24T12:33:25.910Z,101
2023-03-24T12:34:42.337Z,78
2023-03-24T12:35:58.529Z,118
2023-03-24T12:37:14.710Z,106
2023-03-24T12:38:30.900Z,73
2023-03-24T12:39:46.864Z,39
2023-03-24T12:41:03.049Z,28
2023-03-24T12:42:19.471Z,33
2023-03-24T12:43:35.672Z,33
2023-03-24T12:44:51.607Z,33
2023-03-24T12:46:07.812Z,45
2023-03-24T12:47:24.236Z,73
2023-03-24T12:48:40.174Z,73
2023-03-24T12:49:55.630Z,73
2023-03-24T12:51:11.804Z,90
2023-03-24T12:52:27.762Z,67
2023-03-24T12:53:44.196Z,56
2023-03-24T12:55:00.376Z,84
2023-03-24T12:56:16.335Z,61
2023-03-24T12:57:32.526Z,28
2023-03-24T12:58:48.955Z,28
2023-03-24T13:00:05.140Z,28
2023-03-24T13:01:21.079Z,39
2023-03-24T13:02:37.512Z,50
2023-03-24T13:03:53.454Z,56
2023-03-24T13:05:09.653Z,50
2023-03-24T13:06:25.105Z,39
2023-03-24T13:07:41.294Z,56
2023-03-24T13:08:57.472Z,61
2023-03-24T13:10:13.418Z,56
2023-03-24T13:11:29.621Z,50
2023-03-24T13:12:46.038Z,67
2023-03-24T13:14:02.232Z,56
2023-03-24T13:15:18.428Z,73
2023-03-24T13:16:34.613Z,78
2023-03-24T13:17:50.552Z,61
2023-03-24T13:19:06.747Z,73
2023-03-24T13:20:23.177Z,78
2023-03-24T13:21:39.359Z,67
2023-03-24T13:22:54.323Z,61
2023-03-24T13:24:10.767Z,73
2023-03-24T13:25:26.715Z,73
2023-03-24T13:26:42.900Z,67
2023-03-24T13:27:59.320Z,84
2023-03-24T13:29:15.270Z,67
2023-03-24T13:30:31.706Z,67
2023-03-24T13:31:47.892Z,67
2023-03-24T13:33:04.082Z,73
2023-03-24T13:34:20.038Z,61
2023-03-24T13:35:36.211Z,56
2023-03-24T13:36:52.403Z,50
2023-03-24T13:38:08.844Z,50
2023-03-24T13:39:23.791Z,50
2023-03-24T13:40:39.985Z,45
2023-03-24T13:41:56.412Z,50
2023-03-24T13:43:12.612Z,61
2023-03-24T13:44:28.799Z,50
2023-03-24T13:45:44.731Z,50
2023-03-24T13:47:01.174Z,39
2023-03-24T13:48:17.126Z,50
2023-03-24T13:49:33.558Z,67
2023-03-24T13:50:49.745Z,50
2023-03-24T13:52:05.935Z,45
2023-03-24T13:53:22.122Z,56
2023-03-24T13:54:38.070Z,61
2023-03-24T13:55:53.261Z,84
2023-03-24T13:57:09.706Z,112
2023-03-24T13:58:25.893Z,106
2023-03-24T13:59:42.078Z,112
2023-03-24T14:00:58.015Z,106
2023-03-24T14:02:14.464Z,101
2023-03-24T14:03:30.649Z,90
2023-03-24T14:04:46.845Z,73
2023-03-24T14:06:02.770Z,73
2023-03-24T14:07:19.220Z,73
2023-03-24T14:08:35.154Z,84
2023-03-24T14:09:51.601Z,84
2023-03-24T14:11:07.535Z,95
2023-03-24T14:12:22.729Z,78
2023-03-24T14:13:38.918Z,61
2023-03-24T14:14:55.120Z,56
2023-03-24T14:16:11.551Z,67
2023-03-24T14:17:27.739Z,73
2023-03-24T14:18:43.930Z,73
2023-03-24T14:19:59.866Z,67
2023-03-24T14:21:16.056Z,61
2023-03-24T14:22:32.508Z,90
2023-03-24T14:23:48.680Z,118
2023-03-24T14:25:04.876Z,129
2023-03-24T14:26:20.820Z,129
2023-03-24T14:27:36.999Z,146
2023-03-24T14:30:08.647Z,135
2023-03-24T14:31:24.592Z,146
2023-03-24T14:32:41.034Z,112
2023-03-24T14:33:56.955Z,78
2023-03-24T14:35:12.165Z,73
2023-03-24T14:36:28.374Z,95
2023-03-24T14:37:44.817Z,163
2023-03-24T14:39:00.740Z,180
2023-03-24T14:40:17.175Z,123
2023-03-24T14:41:33.384Z,78
2023-03-24T14:42:49.573Z,67
2023-03-24T14:44:05.760Z,106
2023-03-24T14:45:21.937Z,202
2023-03-24T14:46:38.129Z,202
2023-03-24T14:47:54.325Z,168
2023-03-24T14:49:10.501Z,118
2023-03-24T14:50:26.695Z,95
2023-03-24T14:51:41.900Z,95
2023-03-24T14:52:58.097Z,73
2023-03-24T14:54:14.288Z,78
2023-03-24T14:55:30.470Z,112
2023-03-24T14:56:46.662Z,151
2023-03-24T14:58:02.848Z,146
2023-03-24T14:59:19.040Z,101
2023-03-24T15:00:35.233Z,78
2023-03-24T15:01:51.413Z,106
2023-03-24T15:03:07.610Z,146
2023-03-24T15:04:23.795Z,123
2023-03-24T15:05:39.977Z,151
2023-03-24T15:06:56.173Z,151
2023-03-24T15:08:11.377Z,168
2023-03-24T15:09:27.567Z,180
2023-03-24T15:10:43.746Z,185
2023-03-24T15:11:59.936Z,140
2023-03-24T15:13:16.116Z,95
2023-03-24T15:14:32.324Z,90
2023-03-24T15:15:48.501Z,73
2023-03-24T15:17:04.692Z,61
2023-03-24T15:18:20.886Z,45
2023-03-24T15:19:37.074Z,45
2023-03-24T15:20:53.249Z,84
2023-03-24T15:22:09.439Z,129
2023-03-24T15:23:25.653Z,135
2023-03-24T15:24:40.835Z,118
2023-03-24T15:25:57.029Z,135
2023-03-24T15:27:13.236Z,129
2023-03-24T15:28:29.414Z,140
2023-03-24T15:29:45.597Z,146
2023-03-24T15:31:01.791Z,129
2023-03-24T15:32:17.974Z,118
2023-03-24T15:33:34.173Z,95
2023-03-24T15:34:50.347Z,78
2023-03-24T15:36:06.539Z,84
2023-03-24T15:37:22.707Z,84
2023-03-24T15:38:38.917Z,101
2023-03-24T15:39:55.102Z,112
2023-03-24T15:41:10.286Z,129
2023-03-24T15:42:26.474Z,135
2023-03-24T15:43:42.672Z,129
2023-03-24T15:44:58.877Z,118
2023-03-24T15:46:15.052Z,123
2023-03-24T15:47:31.247Z,123
2023-03-24T15:48:47.000Z,118
2023-03-24T15:50:03.598Z,90
2023-03-24T15:51:19.790Z,73
2023-03-24T15:52:35.983Z,67
2023-03-24T15:53:52.174Z,67
2023-03-24T15:55:08.362Z,73
2023-03-24T15:56:24.541Z,67
2023-03-24T15:57:39.771Z,61
2023-03-24T15:58:55.919Z,56
2023-03-24T16:00:12.123Z,50
2023-03-24T16:01:28.330Z,50
2023-03-24T16:02:44.493Z,50
2023-03-24T16:04:00.675Z,50
2023-03-24T16:05:16.888Z,45
2023-03-24T16:06:33.069Z,45
2023-03-24T16:07:49.238Z,50
2023-03-24T16:09:05.415Z,56
2023-03-24T16:10:21.639Z,56
2023-03-24T16:11:37.813Z,50
2023-03-24T16:12:54.015Z,45
2023-03-24T16:14:09.198Z,45
2023-03-24T16:15:25.381Z,45
2023-03-24T16:16:41.577Z,45
2023-03-24T16:17:57.750Z,39
2023-03-24T16:19:13.953Z,39
2023-03-24T16:20:30.119Z,39
2023-03-24T16:21:46.342Z,33
2023-03-24T16:23:02.515Z,33
2023-03-24T16:24:18.714Z,33
2023-03-24T16:25:34.900Z,33
2023-03-24T16:26:51.051Z,28
2023-03-24T16:28:07.243Z,28
2023-03-24T16:29:23.436Z,28
2023-03-24T16:30:38.656Z,28
2023-03-24T16:31:54.849Z,22
2023-03-24T16:33:11.006Z,22
2023-03-24T16:34:27.194Z,22
2023-03-24T16:35:43.388Z,28
2023-03-24T16:36:59.601Z,28
2023-03-24T16:38:15.778Z,22
2023-03-24T16:39:31.951Z,22
2023-03-24T16:40:48.136Z,28
2023-03-24T16:42:04.323Z,28
2023-03-24T16:43:20.536Z,22
2023-03-24T16:44:36.700Z,22
2023-03-24T16:45:52.873Z,16
2023-03-24T16:47:08.102Z,16
2023-03-24T16:48:24.267Z,11
2023-03-24T16:49:40.451Z,11
2023-03-24T16:50:56.672Z,16
2023-03-24T16:52:12.841Z,16
2023-03-24T16:53:29.013Z,11
2023-03-24T16:54:45.227Z,11
2023-03-24T16:56:01.387Z,11
2023-03-24T16:57:17.618Z,11
2023-03-24T16:58:33.759Z,11
2023-03-24T16:59:49.956Z,11
2023-03-24T17:01:06.139Z,11
2023-03-24T17:02:22.366Z,11
2023-03-24T17:03:37.534Z,11
2023-03-24T17:04:53.755Z,11
2023-03-24T17:06:09.912Z,11
2023-03-24T17:07:26.099Z,5
2023-03-24T17:08:42.286Z,5
2023-03-24T17:09:58.500Z,5
2023-03-24T17:11:14.653Z,5
2023-03-24T17:12:30.849Z,5
2023-03-24T17:13:47.071Z,5
2023-03-24T17:15:03.219Z,5
2023-03-24T17:16:19.407Z,5
2023-03-24T17:17:35.598Z,5
2023-03-24T17:18:51.788Z,5
2023-03-24T17:20:07.020Z,0
2023-03-24T17:21:23.173Z,0
2023-03-24T17:22:39.363Z,0
2023-03-24T17:23:55.552Z,0
2023-03-24T17:25:11.760Z,0
2023-03-24T17:26:27.946Z,0
2023-03-24T17:27:44.108Z,0
2023-03-24T17:29:00.281Z,0
2023-03-24T17:30:16.475Z,0
2023-03-24T17:31:32.667Z,0
2023-03-24T17:32:48.895Z,0
2023-03-24T17:34:05.039Z,0
2023-03-24T17:35:21.260Z,0
2023-03-24T17:36:36.419Z,0
2023-03-24T17:37:52.617Z,0
2023-03-24T17:39:08.803Z,0
2023-03-24T17:40:25.032Z,0
2023-03-24T17:41:41.213Z,0
2023-03-24T17:42:57.374Z,0
2023-03-24T17:44:13.542Z,0
2023-03-24T17:45:29.783Z,0
2023-03-24T17:46:45.929Z,0
2023-03-24T17:48:02.150Z,0
2023-03-24T17:49:18.298Z,0
2023-03-24T17:50:34.492Z,0
2023-03-24T17:51:50.714Z,0
2023-03-24T17:53:05.883Z,0
2023-03-24T17:54:22.101Z,0
2023-03-24T17:55:38.282Z,0
2023-03-24T17:56:54.480Z,0
2023-03-24T17:58:10.667Z,0
2023-03-24T17:59:26.812Z,0
2023-03-24T18:00:42.990Z,0
2023-03-24T18:01:59.190Z,0
2023-03-24T18:03:15.422Z,0
2023-03-24T18:04:31.596Z,0
2023-03-24T18:05:47.798Z,0
2023-03-24T18:07:03.967Z,0
2023-03-24T18:08:20.113Z,0
2023-03-24T18:09:35.330Z,0
2023-03-24T18:10:51.545Z,0
2023-03-24T18:12:07.706Z,0
2023-03-24T18:13:23.925Z,0
2023-03-24T18:14:40.069Z,0
2023-03-24T18:15:56.263Z,0